sensor_id;sensor_type;location;lat;lon;timestamp;P1;durP1;ratioP1;P2;durP2;ratioP2
26261;SDS011;13988;52.446;13.280;2024-03-22T00:00:55;8.40;;;4.95;;
26261;SDS011;13988;52.446;13.280;2024-03-22T00:03:20;10.30;;;5.43;;
26261;SDS011;13988;52.446;13.280;2024-03-22T00:05:46;9.52;;;5.45;;
26261;SDS011;13988;52.446;13.280;2024-03-22T00:08:12;10.65;;;5.45;;
26261;SDS011;13988;52.446;13.280;2024-03-22T00:10:38;11.30;;;5.20;;
26261;SDS011;13988;52.446;13.280;2024-03-22T00:13:04;9.95;;;5.78;;
26261;SDS011;13988;52.446;13.280;2024-03-22T00:15:29;8.25;;;5.32;;
26261;SDS011;13988;52.446;13.280;2024-03-22T00:17:55;9.43;;;5.40;;
26261;SDS011;13988;52.446;13.280;2024-03-22T00:20:20;8.98;;;5.63;;
26261;SDS011;13988;52.446;13.280;2024-03-22T00:22:46;10.43;;;5.80;;
26261;SDS011;13988;52.446;13.280;2024-03-22T00:25:11;9.95;;;6.35;;
26261;SDS011;13988;52.446;13.280;2024-03-22T00:27:37;11.73;;;5.82;;
26261;SDS011;13988;52.446;13.280;2024-03-22T00:30:03;10.55;;;5.70;;
26261;SDS011;13988;52.446;13.280;2024-03-22T00:32:29;12.25;;;6.68;;
26261;SDS011;13988;52.446;13.280;2024-03-22T00:34:54;9.80;;;6.57;;
26261;SDS011;13988;52.446;13.280;2024-03-22T00:37:20;11.82;;;6.43;;
26261;SDS011;13988;52.446;13.280;2024-03-22T00:39:46;9.93;;;6.25;;
26261;SDS011;13988;52.446;13.280;2024-03-22T00:42:11;10.25;;;5.88;;
26261;SDS011;13988;52.446;13.280;2024-03-22T00:44:37;8.70;;;5.43;;
26261;SDS011;13988;52.446;13.280;2024-03-22T00:47:02;11.98;;;6.20;;
26261;SDS011;13988;52.446;13.280;2024-03-22T00:49:28;9.95;;;5.55;;
26261;SDS011;13988;52.446;13.280;2024-03-22T00:51:54;11.52;;;6.22;;
26261;SDS011;13988;52.446;13.280;2024-03-22T00:54:21;9.98;;;6.03;;
26261;SDS011;13988;52.446;13.280;2024-03-22T00:56:47;11.93;;;6.55;;
26261;SDS011;13988;52.446;13.280;2024-03-22T00:59:13;13.68;;;7.28;;
26261;SDS011;13988;52.446;13.280;2024-03-22T01:01:38;13.18;;;5.78;;
26261;SDS011;13988;52.446;13.280;2024-03-22T01:04:04;11.55;;;7.03;;
26261;SDS011;13988;52.446;13.280;2024-03-22T01:06:29;15.70;;;6.53;;
26261;SDS011;13988;52.446;13.280;2024-03-22T01:08:55;12.38;;;6.40;;
26261;SDS011;13988;52.446;13.280;2024-03-22T01:11:21;11.02;;;6.55;;
26261;SDS011;13988;52.446;13.280;2024-03-22T01:13:46;15.93;;;7.25;;
26261;SDS011;13988;52.446;13.280;2024-03-22T01:16:12;17.40;;;7.03;;
26261;SDS011;13988;52.446;13.280;2024-03-22T01:18:38;17.58;;;7.15;;
26261;SDS011;13988;52.446;13.280;2024-03-22T01:21:03;13.60;;;6.75;;
26261;SDS011;13988;52.446;13.280;2024-03-22T01:23:30;12.68;;;5.80;;
26261;SDS011;13988;52.446;13.280;2024-03-22T01:25:56;14.05;;;6.38;;
26261;SDS011;13988;52.446;13.280;2024-03-22T01:28:22;14.02;;;7.20;;
26261;SDS011;13988;52.446;13.280;2024-03-22T01:30:47;16.20;;;7.85;;
26261;SDS011;13988;52.446;13.280;2024-03-22T01:33:13;15.30;;;7.13;;
26261;SDS011;13988;52.446;13.280;2024-03-22T01:35:39;14.65;;;7.30;;
26261;SDS011;13988;52.446;13.280;2024-03-22T01:38:04;15.48;;;7.03;;
26261;SDS011;13988;52.446;13.280;2024-03-22T01:40:30;13.43;;;6.53;;
26261;SDS011;13988;52.446;13.280;2024-03-22T01:42:56;13.50;;;7.38;;
26261;SDS011;13988;52.446;13.280;2024-03-22T01:45:23;14.95;;;7.38;;
26261;SDS011;13988;52.446;13.280;2024-03-22T01:47:52;24.77;;;7.10;;
26261;SDS011;13988;52.446;13.280;2024-03-22T01:50:23;13.30;;;6.53;;
26261;SDS011;13988;52.446;13.280;2024-03-22T01:52:48;15.82;;;6.43;;
26261;SDS011;13988;52.446;13.280;2024-03-22T01:55:15;14.05;;;7.25;;
26261;SDS011;13988;52.446;13.280;2024-03-22T01:57:41;12.00;;;6.25;;
26261;SDS011;13988;52.446;13.280;2024-03-22T02:00:07;9.25;;;6.05;;
26261;SDS011;13988;52.446;13.280;2024-03-22T02:02:33;13.88;;;7.53;;
26261;SDS011;13988;52.446;13.280;2024-03-22T02:04:59;10.50;;;6.00;;
26261;SDS011;13988;52.446;13.280;2024-03-22T02:07:36;16.70;;;6.88;;
26261;SDS011;13988;52.446;13.280;2024-03-22T02:10:01;13.50;;;7.13;;
26261;SDS011;13988;52.446;13.280;2024-03-22T02:12:27;15.82;;;6.57;;
26261;SDS011;13988;52.446;13.280;2024-03-22T02:14:53;11.88;;;6.13;;
26261;SDS011;13988;52.446;13.280;2024-03-22T02:17:22;15.20;;;6.80;;
26261;SDS011;13988;52.446;13.280;2024-03-22T02:19:48;17.13;;;7.00;;
26261;SDS011;13988;52.446;13.280;2024-03-22T02:22:13;16.77;;;7.80;;
26261;SDS011;13988;52.446;13.280;2024-03-22T02:24:39;14.02;;;6.93;;
26261;SDS011;13988;52.446;13.280;2024-03-22T02:27:04;15.07;;;7.13;;
26261;SDS011;13988;52.446;13.280;2024-03-22T02:29:30;13.98;;;7.30;;
26261;SDS011;13988;52.446;13.280;2024-03-22T02:31:55;13.68;;;7.15;;
26261;SDS011;13988;52.446;13.280;2024-03-22T02:34:23;13.70;;;8.02;;
26261;SDS011;13988;52.446;13.280;2024-03-22T02:36:48;13.93;;;6.70;;
26261;SDS011;13988;52.446;13.280;2024-03-22T02:39:14;11.80;;;7.13;;
26261;SDS011;13988;52.446;13.280;2024-03-22T02:41:40;13.45;;;5.97;;
26261;SDS011;13988;52.446;13.280;2024-03-22T02:44:05;16.33;;;7.20;;
26261;SDS011;13988;52.446;13.280;2024-03-22T02:46:31;14.15;;;7.13;;
26261;SDS011;13988;52.446;13.280;2024-03-22T02:48:57;12.32;;;6.53;;
26261;SDS011;13988;52.446;13.280;2024-03-22T02:51:22;12.77;;;6.13;;
26261;SDS011;13988;52.446;13.280;2024-03-22T02:53:48;13.80;;;6.82;;
26261;SDS011;13988;52.446;13.280;2024-03-22T02:56:14;14.23;;;7.85;;
26261;SDS011;13988;52.446;13.280;2024-03-22T02:58:39;14.77;;;6.63;;
26261;SDS011;13988;52.446;13.280;2024-03-22T03:01:05;13.50;;;6.50;;
26261;SDS011;13988;52.446;13.280;2024-03-22T03:03:31;15.38;;;6.95;;
26261;SDS011;13988;52.446;13.280;2024-03-22T03:05:56;15.05;;;7.10;;
26261;SDS011;13988;52.446;13.280;2024-03-22T03:08:22;17.05;;;7.47;;
26261;SDS011;13988;52.446;13.280;2024-03-22T03:10:47;15.10;;;7.55;;
26261;SDS011;13988;52.446;13.280;2024-03-22T03:13:13;16.30;;;7.00;;
26261;SDS011;13988;52.446;13.280;2024-03-22T03:15:39;14.70;;;7.82;;
26261;SDS011;13988;52.446;13.280;2024-03-22T03:18:04;13.85;;;6.20;;
26261;SDS011;13988;52.446;13.280;2024-03-22T03:20:30;14.38;;;7.13;;
26261;SDS011;13988;52.446;13.280;2024-03-22T03:22:56;12.52;;;6.22;;
26261;SDS011;13988;52.446;13.280;2024-03-22T03:25:24;16.35;;;7.25;;
26261;SDS011;13988;52.446;13.280;2024-03-22T03:27:51;13.98;;;6.43;;
26261;SDS011;13988;52.446;13.280;2024-03-22T03:30:16;15.38;;;7.20;;
26261;SDS011;13988;52.446;13.280;2024-03-22T03:32:42;16.58;;;5.97;;
26261;SDS011;13988;52.446;13.280;2024-03-22T03:35:08;12.85;;;7.18;;
26261;SDS011;13988;52.446;13.280;2024-03-22T03:37:33;15.25;;;6.65;;
26261;SDS011;13988;52.446;13.280;2024-03-22T03:39:59;12.90;;;5.65;;
26261;SDS011;13988;52.446;13.280;2024-03-22T03:42:25;15.30;;;6.45;;
26261;SDS011;13988;52.446;13.280;2024-03-22T03:44:50;13.57;;;5.78;;
26261;SDS011;13988;52.446;13.280;2024-03-22T03:47:16;11.02;;;6.45;;
26261;SDS011;13988;52.446;13.280;2024-03-22T03:49:42;15.63;;;7.35;;
26261;SDS011;13988;52.446;13.280;2024-03-22T03:52:09;18.13;;;6.82;;
26261;SDS011;13988;52.446;13.280;2024-03-22T03:54:35;12.27;;;5.68;;
26261;SDS011;13988;52.446;13.280;2024-03-22T03:57:00;11.18;;;5.32;;
26261;SDS011;13988;52.446;13.280;2024-03-22T03:59:26;14.98;;;6.88;;
26261;SDS011;13988;52.446;13.280;2024-03-22T04:01:52;16.45;;;5.50;;
26261;SDS011;13988;52.446;13.280;2024-03-22T04:04:17;14.77;;;6.75;;
26261;SDS011;13988;52.446;13.280;2024-03-22T04:06:43;11.57;;;5.70;;
26261;SDS011;13988;52.446;13.280;2024-03-22T04:09:09;13.18;;;6.30;;
26261;SDS011;13988;52.446;13.280;2024-03-22T04:11:35;13.77;;;5.97;;
26261;SDS011;13988;52.446;13.280;2024-03-22T04:14:02;10.48;;;5.20;;
26261;SDS011;13988;52.446;13.280;2024-03-22T04:16:28;13.52;;;6.55;;
26261;SDS011;13988;52.446;13.280;2024-03-22T04:18:54;14.02;;;6.35;;
26261;SDS011;13988;52.446;13.280;2024-03-22T04:21:19;17.17;;;6.13;;
26261;SDS011;13988;52.446;13.280;2024-03-22T04:23:45;15.98;;;6.60;;
26261;SDS011;13988;52.446;13.280;2024-03-22T04:26:11;13.65;;;6.75;;
26261;SDS011;13988;52.446;13.280;2024-03-22T04:28:37;19.77;;;6.90;;
26261;SDS011;13988;52.446;13.280;2024-03-22T04:31:06;14.50;;;6.70;;
26261;SDS011;13988;52.446;13.280;2024-03-22T04:33:33;12.10;;;6.30;;
26261;SDS011;13988;52.446;13.280;2024-03-22T04:36:00;13.50;;;6.20;;
26261;SDS011;13988;52.446;13.280;2024-03-22T04:38:26;12.85;;;6.10;;
26261;SDS011;13988;52.446;13.280;2024-03-22T04:40:53;13.07;;;6.38;;
26261;SDS011;13988;52.446;13.280;2024-03-22T04:43:19;10.43;;;5.40;;
26261;SDS011;13988;52.446;13.280;2024-03-22T04:45:46;12.57;;;5.55;;
26261;SDS011;13988;52.446;13.280;2024-03-22T04:48:13;15.38;;;6.30;;
26261;SDS011;13988;52.446;13.280;2024-03-22T04:50:39;11.13;;;5.88;;
26261;SDS011;13988;52.446;13.280;2024-03-22T04:53:05;12.30;;;6.35;;
26261;SDS011;13988;52.446;13.280;2024-03-22T04:55:31;14.18;;;6.32;;
26261;SDS011;13988;52.446;13.280;2024-03-22T04:58:00;13.80;;;5.72;;
26261;SDS011;13988;52.446;13.280;2024-03-22T05:00:27;11.77;;;6.05;;
26261;SDS011;13988;52.446;13.280;2024-03-22T05:02:53;10.80;;;6.00;;
26261;SDS011;13988;52.446;13.280;2024-03-22T05:05:19;13.63;;;5.85;;
26261;SDS011;13988;52.446;13.280;2024-03-22T05:07:44;15.10;;;5.40;;
26261;SDS011;13988;52.446;13.280;2024-03-22T05:10:10;13.77;;;6.18;;
26261;SDS011;13988;52.446;13.280;2024-03-22T05:12:37;15.10;;;6.30;;
26261;SDS011;13988;52.446;13.280;2024-03-22T05:15:03;17.60;;;8.10;;
26261;SDS011;13988;52.446;13.280;2024-03-22T05:17:29;11.75;;;5.80;;
26261;SDS011;13988;52.446;13.280;2024-03-22T05:19:57;13.68;;;6.72;;
26261;SDS011;13988;52.446;13.280;2024-03-22T05:22:23;14.05;;;6.68;;
26261;SDS011;13988;52.446;13.280;2024-03-22T05:24:48;16.55;;;7.80;;
26261;SDS011;13988;52.446;13.280;2024-03-22T05:27:14;12.57;;;6.93;;
26261;SDS011;13988;52.446;13.280;2024-03-22T05:29:40;16.02;;;7.00;;
26261;SDS011;13988;52.446;13.280;2024-03-22T05:32:05;16.90;;;7.22;;
26261;SDS011;13988;52.446;13.280;2024-03-22T05:34:31;18.20;;;8.70;;
26261;SDS011;13988;52.446;13.280;2024-03-22T05:36:57;13.48;;;7.03;;
26261;SDS011;13988;52.446;13.280;2024-03-22T05:39:22;14.90;;;6.40;;
26261;SDS011;13988;52.446;13.280;2024-03-22T05:41:48;14.70;;;6.45;;
26261;SDS011;13988;52.446;13.280;2024-03-22T05:44:13;19.83;;;7.28;;
26261;SDS011;13988;52.446;13.280;2024-03-22T05:46:39;16.38;;;7.07;;
26261;SDS011;13988;52.446;13.280;2024-03-22T05:49:05;18.85;;;6.28;;
26261;SDS011;13988;52.446;13.280;2024-03-22T05:51:31;13.80;;;6.95;;
26261;SDS011;13988;52.446;13.280;2024-03-22T05:53:56;13.57;;;7.65;;
26261;SDS011;13988;52.446;13.280;2024-03-22T05:56:22;16.23;;;7.75;;
26261;SDS011;13988;52.446;13.280;2024-03-22T05:58:48;16.25;;;7.88;;
26261;SDS011;13988;52.446;13.280;2024-03-22T06:01:14;15.52;;;7.30;;
26261;SDS011;13988;52.446;13.280;2024-03-22T06:03:39;18.92;;;7.82;;
26261;SDS011;13988;52.446;13.280;2024-03-22T06:06:05;18.52;;;6.95;;
26261;SDS011;13988;52.446;13.280;2024-03-22T06:08:30;11.10;;;6.05;;
26261;SDS011;13988;52.446;13.280;2024-03-22T06:11:04;13.25;;;6.53;;
26261;SDS011;13988;52.446;13.280;2024-03-22T06:13:32;12.45;;;6.93;;
26261;SDS011;13988;52.446;13.280;2024-03-22T06:15:58;11.48;;;5.72;;
26261;SDS011;13988;52.446;13.280;2024-03-22T06:18:24;16.48;;;6.85;;
26261;SDS011;13988;52.446;13.280;2024-03-22T06:20:49;13.50;;;6.82;;
26261;SDS011;13988;52.446;13.280;2024-03-22T06:23:15;15.88;;;7.45;;
26261;SDS011;13988;52.446;13.280;2024-03-22T06:25:41;16.52;;;7.00;;
26261;SDS011;13988;52.446;13.280;2024-03-22T06:28:06;13.55;;;7.10;;
26261;SDS011;13988;52.446;13.280;2024-03-22T06:30:32;18.13;;;6.63;;
26261;SDS011;13988;52.446;13.280;2024-03-22T06:32:57;13.40;;;7.03;;
26261;SDS011;13988;52.446;13.280;2024-03-22T06:35:23;12.63;;;5.63;;
26261;SDS011;13988;52.446;13.280;2024-03-22T06:37:48;15.60;;;7.13;;
26261;SDS011;13988;52.446;13.280;2024-03-22T06:40:14;16.83;;;7.45;;
26261;SDS011;13988;52.446;13.280;2024-03-22T06:42:41;13.65;;;7.30;;
26261;SDS011;13988;52.446;13.280;2024-03-22T06:45:07;13.75;;;7.10;;
26261;SDS011;13988;52.446;13.280;2024-03-22T06:47:33;13.60;;;7.50;;
26261;SDS011;13988;52.446;13.280;2024-03-22T06:49:58;15.75;;;7.15;;
26261;SDS011;13988;52.446;13.280;2024-03-22T06:52:24;14.05;;;6.75;;
26261;SDS011;13988;52.446;13.280;2024-03-22T06:54:50;14.45;;;6.82;;
26261;SDS011;13988;52.446;13.280;2024-03-22T06:57:15;15.68;;;7.80;;
26261;SDS011;13988;52.446;13.280;2024-03-22T06:59:41;16.60;;;7.88;;
26261;SDS011;13988;52.446;13.280;2024-03-22T07:02:07;18.75;;;7.72;;
26261;SDS011;13988;52.446;13.280;2024-03-22T07:04:34;12.63;;;6.63;;
26261;SDS011;13988;52.446;13.280;2024-03-22T07:07:00;13.98;;;6.50;;
26261;SDS011;13988;52.446;13.280;2024-03-22T07:09:26;18.23;;;8.10;;
26261;SDS011;13988;52.446;13.280;2024-03-22T07:11:53;16.63;;;7.82;;
26261;SDS011;13988;52.446;13.280;2024-03-22T07:14:19;16.65;;;7.40;;
26261;SDS011;13988;52.446;13.280;2024-03-22T07:16:44;13.07;;;7.25;;
26261;SDS011;13988;52.446;13.280;2024-03-22T07:19:11;18.23;;;9.07;;
26261;SDS011;13988;52.446;13.280;2024-03-22T07:21:37;13.98;;;6.78;;
26261;SDS011;13988;52.446;13.280;2024-03-22T07:24:03;19.10;;;8.88;;
26261;SDS011;13988;52.446;13.280;2024-03-22T07:26:29;20.58;;;8.52;;
26261;SDS011;13988;52.446;13.280;2024-03-22T07:28:55;15.90;;;7.50;;
26261;SDS011;13988;52.446;13.280;2024-03-22T07:31:21;17.90;;;8.73;;
26261;SDS011;13988;52.446;13.280;2024-03-22T07:33:46;17.13;;;8.68;;
26261;SDS011;13988;52.446;13.280;2024-03-22T07:36:15;15.68;;;8.23;;
26261;SDS011;13988;52.446;13.280;2024-03-22T07:38:41;18.63;;;8.90;;
26261;SDS011;13988;52.446;13.280;2024-03-22T07:41:07;19.30;;;8.80;;
26261;SDS011;13988;52.446;13.280;2024-03-22T07:43:32;20.05;;;8.80;;
26261;SDS011;13988;52.446;13.280;2024-03-22T07:45:58;18.55;;;8.50;;
26261;SDS011;13988;52.446;13.280;2024-03-22T07:48:23;19.25;;;8.82;;
26261;SDS011;13988;52.446;13.280;2024-03-22T07:50:55;19.55;;;9.65;;
26261;SDS011;13988;52.446;13.280;2024-03-22T07:53:25;19.58;;;8.95;;
26261;SDS011;13988;52.446;13.280;2024-03-22T07:55:50;17.77;;;9.30;;
26261;SDS011;13988;52.446;13.280;2024-03-22T07:58:16;21.42;;;9.48;;
26261;SDS011;13988;52.446;13.280;2024-03-22T08:00:42;16.48;;;8.90;;
26261;SDS011;13988;52.446;13.280;2024-03-22T08:03:08;16.67;;;7.93;;
26261;SDS011;13988;52.446;13.280;2024-03-22T08:05:39;21.52;;;9.45;;
26261;SDS011;13988;52.446;13.280;2024-03-22T08:08:05;20.58;;;9.90;;
26261;SDS011;13988;52.446;13.280;2024-03-22T08:10:31;18.40;;;9.23;;
26261;SDS011;13988;52.446;13.280;2024-03-22T08:12:57;17.13;;;9.30;;
26261;SDS011;13988;52.446;13.280;2024-03-22T08:15:23;17.63;;;9.20;;
26261;SDS011;13988;52.446;13.280;2024-03-22T08:17:48;19.67;;;7.95;;
26261;SDS011;13988;52.446;13.280;2024-03-22T08:20:14;21.67;;;9.85;;
26261;SDS011;13988;52.446;13.280;2024-03-22T08:22:39;18.10;;;9.73;;
26261;SDS011;13988;52.446;13.280;2024-03-22T08:25:05;19.00;;;8.43;;
26261;SDS011;13988;52.446;13.280;2024-03-22T08:27:32;18.63;;;9.10;;
26261;SDS011;13988;52.446;13.280;2024-03-22T08:29:59;12.77;;;7.53;;
26261;SDS011;13988;52.446;13.280;2024-03-22T08:32:25;18.30;;;9.32;;
26261;SDS011;13988;52.446;13.280;2024-03-22T08:34:50;21.30;;;11.30;;
26261;SDS011;13988;52.446;13.280;2024-03-22T08:37:16;18.00;;;8.88;;
26261;SDS011;13988;52.446;13.280;2024-03-22T08:39:42;16.77;;;8.88;;
26261;SDS011;13988;52.446;13.280;2024-03-22T08:42:08;17.90;;;9.43;;
26261;SDS011;13988;52.446;13.280;2024-03-22T08:44:34;15.70;;;8.80;;
26261;SDS011;13988;52.446;13.280;2024-03-22T08:47:00;20.40;;;9.27;;
26261;SDS011;13988;52.446;13.280;2024-03-22T08:49:26;19.58;;;9.27;;
26261;SDS011;13988;52.446;13.280;2024-03-22T08:51:51;19.23;;;9.57;;
26261;SDS011;13988;52.446;13.280;2024-03-22T08:54:17;14.32;;;8.15;;
26261;SDS011;13988;52.446;13.280;2024-03-22T08:56:43;16.90;;;9.20;;
26261;SDS011;13988;52.446;13.280;2024-03-22T08:59:08;23.55;;;9.27;;
26261;SDS011;13988;52.446;13.280;2024-03-22T09:01:35;16.30;;;9.10;;
26261;SDS011;13988;52.446;13.280;2024-03-22T09:04:01;18.88;;;9.48;;
26261;SDS011;13988;52.446;13.280;2024-03-22T09:06:27;18.58;;;9.25;;
26261;SDS011;13988;52.446;13.280;2024-03-22T09:08:53;16.70;;;9.73;;
26261;SDS011;13988;52.446;13.280;2024-03-22T09:11:22;16.52;;;8.13;;
26261;SDS011;13988;52.446;13.280;2024-03-22T09:13:51;19.10;;;10.25;;
26261;SDS011;13988;52.446;13.280;2024-03-22T09:16:17;25.95;;;8.75;;
26261;SDS011;13988;52.446;13.280;2024-03-22T09:18:43;15.52;;;8.57;;
26261;SDS011;13988;52.446;13.280;2024-03-22T09:21:08;17.42;;;8.98;;
26261;SDS011;13988;52.446;13.280;2024-03-22T09:23:35;14.68;;;7.88;;
26261;SDS011;13988;52.446;13.280;2024-03-22T09:26:01;17.65;;;9.80;;
26261;SDS011;13988;52.446;13.280;2024-03-22T09:28:27;21.60;;;9.50;;
26261;SDS011;13988;52.446;13.280;2024-03-22T09:30:52;19.17;;;9.07;;
26261;SDS011;13988;52.446;13.280;2024-03-22T09:33:18;20.05;;;8.65;;
26261;SDS011;13988;52.446;13.280;2024-03-22T09:35:44;16.33;;;8.32;;
26261;SDS011;13988;52.446;13.280;2024-03-22T09:38:09;18.02;;;9.40;;
26261;SDS011;13988;52.446;13.280;2024-03-22T09:40:37;13.80;;;7.43;;
26261;SDS011;13988;52.446;13.280;2024-03-22T09:43:07;15.55;;;8.23;;
26261;SDS011;13988;52.446;13.280;2024-03-22T09:45:34;16.42;;;8.20;;
26261;SDS011;13988;52.446;13.280;2024-03-22T09:47:59;20.60;;;9.40;;
26261;SDS011;13988;52.446;13.280;2024-03-22T09:50:26;16.95;;;8.95;;
26261;SDS011;13988;52.446;13.280;2024-03-22T09:52:53;16.42;;;8.90;;
26261;SDS011;13988;52.446;13.280;2024-03-22T09:55:23;17.45;;;8.65;;
26261;SDS011;13988;52.446;13.280;2024-03-22T09:57:49;13.35;;;8.20;;
26261;SDS011;13988;52.446;13.280;2024-03-22T10:00:16;17.15;;;8.77;;
26261;SDS011;13988;52.446;13.280;2024-03-22T10:02:45;18.83;;;8.65;;
26261;SDS011;13988;52.446;13.280;2024-03-22T10:05:12;19.55;;;8.68;;
26261;SDS011;13988;52.446;13.280;2024-03-22T10:07:38;14.65;;;8.65;;
26261;SDS011;13988;52.446;13.280;2024-03-22T10:10:05;19.25;;;8.13;;
26261;SDS011;13988;52.446;13.280;2024-03-22T10:12:32;13.27;;;8.38;;
26261;SDS011;13988;52.446;13.280;2024-03-22T10:14:58;13.07;;;7.72;;
26261;SDS011;13988;52.446;13.280;2024-03-22T10:17:26;18.00;;;9.90;;
26261;SDS011;13988;52.446;13.280;2024-03-22T10:19:52;21.20;;;8.40;;
26261;SDS011;13988;52.446;13.280;2024-03-22T10:22:17;17.05;;;9.13;;
26261;SDS011;13988;52.446;13.280;2024-03-22T10:24:43;19.25;;;8.40;;
26261;SDS011;13988;52.446;13.280;2024-03-22T10:27:09;21.73;;;8.07;;
26261;SDS011;13988;52.446;13.280;2024-03-22T10:29:35;13.63;;;8.07;;
26261;SDS011;13988;52.446;13.280;2024-03-22T10:32:01;18.88;;;8.80;;
26261;SDS011;13988;52.446;13.280;2024-03-22T10:34:27;13.13;;;7.07;;
26261;SDS011;13988;52.446;13.280;2024-03-22T10:36:55;14.38;;;7.72;;
26261;SDS011;13988;52.446;13.280;2024-03-22T10:39:22;19.45;;;7.93;;
26261;SDS011;13988;52.446;13.280;2024-03-22T10:41:49;16.45;;;7.88;;
26261;SDS011;13988;52.446;13.280;2024-03-22T10:44:15;14.63;;;7.82;;
26261;SDS011;13988;52.446;13.280;2024-03-22T10:46:45;14.68;;;7.93;;
26261;SDS011;13988;52.446;13.280;2024-03-22T10:49:18;18.15;;;7.75;;
26261;SDS011;13988;52.446;13.280;2024-03-22T10:51:54;12.18;;;7.07;;
26261;SDS011;13988;52.446;13.280;2024-03-22T10:54:26;13.93;;;7.60;;
26261;SDS011;13988;52.446;13.280;2024-03-22T10:56:56;11.75;;;6.57;;
26261;SDS011;13988;52.446;13.280;2024-03-22T10:59:22;15.30;;;7.63;;
26261;SDS011;13988;52.446;13.280;2024-03-22T11:01:48;10.73;;;6.45;;
26261;SDS011;13988;52.446;13.280;2024-03-22T11:04:16;11.05;;;5.57;;
26261;SDS011;13988;52.446;13.280;2024-03-22T11:06:46;16.25;;;7.60;;
26261;SDS011;13988;52.446;13.280;2024-03-22T11:09:18;10.40;;;6.57;;
26261;SDS011;13988;52.446;13.280;2024-03-22T11:11:47;14.20;;;8.40;;
26261;SDS011;13988;52.446;13.280;2024-03-22T11:14:13;13.60;;;7.30;;
26261;SDS011;13988;52.446;13.280;2024-03-22T11:16:42;15.13;;;7.50;;
26261;SDS011;13988;52.446;13.280;2024-03-22T11:19:09;15.93;;;7.82;;
26261;SDS011;13988;52.446;13.280;2024-03-22T11:21:35;15.38;;;7.45;;
26261;SDS011;13988;52.446;13.280;2024-03-22T11:24:01;13.95;;;7.68;;
26261;SDS011;13988;52.446;13.280;2024-03-22T11:26:27;14.27;;;8.07;;
26261;SDS011;13988;52.446;13.280;2024-03-22T11:28:52;13.48;;;6.85;;
26261;SDS011;13988;52.446;13.280;2024-03-22T11:31:18;12.02;;;6.93;;
26261;SDS011;13988;52.446;13.280;2024-03-22T11:33:46;11.88;;;6.43;;
26261;SDS011;13988;52.446;13.280;2024-03-22T11:36:12;13.23;;;6.65;;
26261;SDS011;13988;52.446;13.280;2024-03-22T11:38:39;15.85;;;7.60;;
26261;SDS011;13988;52.446;13.280;2024-03-22T11:41:04;13.75;;;6.53;;
26261;SDS011;13988;52.446;13.280;2024-03-22T11:43:31;13.57;;;6.72;;
26261;SDS011;13988;52.446;13.280;2024-03-22T11:45:57;15.68;;;6.75;;
26261;SDS011;13988;52.446;13.280;2024-03-22T11:48:23;14.85;;;7.07;;
26261;SDS011;13988;52.446;13.280;2024-03-22T11:50:49;14.35;;;6.85;;
26261;SDS011;13988;52.446;13.280;2024-03-22T11:53:18;12.30;;;7.50;;
26261;SDS011;13988;52.446;13.280;2024-03-22T11:55:44;12.52;;;6.70;;
26261;SDS011;13988;52.446;13.280;2024-03-22T11:58:10;12.70;;;6.53;;
26261;SDS011;13988;52.446;13.280;2024-03-22T12:00:36;13.93;;;6.95;;
26261;SDS011;13988;52.446;13.280;2024-03-22T12:03:03;20.83;;;9.13;;
26261;SDS011;13988;52.446;13.280;2024-03-22T12:05:31;18.63;;;7.30;;
26261;SDS011;13988;52.446;13.280;2024-03-22T12:07:57;14.63;;;7.53;;
26261;SDS011;13988;52.446;13.280;2024-03-22T12:10:22;17.08;;;6.70;;
26261;SDS011;13988;52.446;13.280;2024-03-22T12:12:48;16.65;;;7.15;;
26261;SDS011;13988;52.446;13.280;2024-03-22T12:15:13;14.10;;;7.85;;
26261;SDS011;13988;52.446;13.280;2024-03-22T12:17:39;15.18;;;7.55;;
26261;SDS011;13988;52.446;13.280;2024-03-22T12:20:08;13.93;;;7.32;;
26261;SDS011;13988;52.446;13.280;2024-03-22T12:22:34;12.82;;;6.55;;
26261;SDS011;13988;52.446;13.280;2024-03-22T12:25:00;15.60;;;7.28;;
26261;SDS011;13988;52.446;13.280;2024-03-22T12:27:26;15.23;;;7.53;;
26261;SDS011;13988;52.446;13.280;2024-03-22T12:29:51;14.98;;;7.93;;
26261;SDS011;13988;52.446;13.280;2024-03-22T12:32:17;13.18;;;6.05;;
26261;SDS011;13988;52.446;13.280;2024-03-22T12:34:43;15.18;;;6.82;;
26261;SDS011;13988;52.446;13.280;2024-03-22T12:37:09;16.77;;;7.68;;
26261;SDS011;13988;52.446;13.280;2024-03-22T12:39:35;18.10;;;7.68;;
26261;SDS011;13988;52.446;13.280;2024-03-22T12:42:00;14.07;;;7.15;;
26261;SDS011;13988;52.446;13.280;2024-03-22T12:44:27;12.88;;;7.43;;
26261;SDS011;13988;52.446;13.280;2024-03-22T12:46:52;18.35;;;8.45;;
26261;SDS011;13988;52.446;13.280;2024-03-22T12:49:19;15.02;;;7.40;;
26261;SDS011;13988;52.446;13.280;2024-03-22T12:51:45;21.67;;;8.93;;
26261;SDS011;13988;52.446;13.280;2024-03-22T12:54:10;15.10;;;7.10;;
26261;SDS011;13988;52.446;13.280;2024-03-22T12:56:37;17.08;;;7.18;;
26261;SDS011;13988;52.446;13.280;2024-03-22T12:59:04;18.80;;;8.07;;
26261;SDS011;13988;52.446;13.280;2024-03-22T13:01:30;18.52;;;9.00;;
26261;SDS011;13988;52.446;13.280;2024-03-22T13:03:55;13.32;;;7.07;;
26261;SDS011;13988;52.446;13.280;2024-03-22T13:06:21;12.07;;;6.72;;
26261;SDS011;13988;52.446;13.280;2024-03-22T13:08:47;14.63;;;7.43;;
26261;SDS011;13988;52.446;13.280;2024-03-22T13:11:13;20.13;;;8.50;;
26261;SDS011;13988;52.446;13.280;2024-03-22T13:13:39;11.52;;;6.68;;
26261;SDS011;13988;52.446;13.280;2024-03-22T13:16:05;16.08;;;7.70;;
26261;SDS011;13988;52.446;13.280;2024-03-22T13:18:31;16.02;;;6.65;;
26261;SDS011;13988;52.446;13.280;2024-03-22T13:20:57;12.93;;;6.47;;
26261;SDS011;13988;52.446;13.280;2024-03-22T13:23:23;18.90;;;6.97;;
26261;SDS011;13988;52.446;13.280;2024-03-22T13:25:49;13.18;;;6.18;;
26261;SDS011;13988;52.446;13.280;2024-03-22T13:28:15;14.23;;;7.50;;
26261;SDS011;13988;52.446;13.280;2024-03-22T13:30:45;11.85;;;6.15;;
26261;SDS011;13988;52.446;13.280;2024-03-22T13:33:11;12.13;;;6.03;;
26261;SDS011;13988;52.446;13.280;2024-03-22T13:35:36;10.75;;;5.95;;
26261;SDS011;13988;52.446;13.280;2024-03-22T13:38:02;11.27;;;6.20;;
26261;SDS011;13988;52.446;13.280;2024-03-22T13:40:28;12.40;;;5.75;;
26261;SDS011;13988;52.446;13.280;2024-03-22T13:42:54;10.32;;;5.22;;
26261;SDS011;13988;52.446;13.280;2024-03-22T13:45:20;14.27;;;6.32;;
26261;SDS011;13988;52.446;13.280;2024-03-22T13:47:46;12.55;;;6.63;;
26261;SDS011;13988;52.446;13.280;2024-03-22T13:50:11;12.02;;;6.68;;
26261;SDS011;13988;52.446;13.280;2024-03-22T13:52:37;13.75;;;7.35;;
26261;SDS011;13988;52.446;13.280;2024-03-22T13:55:03;18.55;;;7.85;;
26261;SDS011;13988;52.446;13.280;2024-03-22T13:57:29;16.15;;;7.93;;
26261;SDS011;13988;52.446;13.280;2024-03-22T13:59:56;22.15;;;8.85;;
26261;SDS011;13988;52.446;13.280;2024-03-22T14:02:21;16.70;;;8.23;;
26261;SDS011;13988;52.446;13.280;2024-03-22T14:04:47;14.45;;;7.07;;
26261;SDS011;13988;52.446;13.280;2024-03-22T14:07:13;13.95;;;7.55;;
26261;SDS011;13988;52.446;13.280;2024-03-22T14:09:39;15.57;;;7.97;;
26261;SDS011;13988;52.446;13.280;2024-03-22T14:12:06;17.23;;;7.78;;
26261;SDS011;13988;52.446;13.280;2024-03-22T14:14:31;20.73;;;8.80;;